x

Isle Of Shoals, Nh (iosn3) Weather Station

1:00 - Fri 9th Dec 2016 All times are EST. -5 hours from GMT.

  • Wind
    33mph, 39mph gusts
  • Luft Temp 32°f
  • Sea Pressure 1012mb
  • Isle Of Shoals, Nh
  • Isle Of Shoals, Nh

More Historic Weather Station data

Upgrade to MSW Pro to gain access to the past 30 days of data for over 8000 Wavebouys and Weather Stations around the globe.

Join Pro

Comparision Forecast

View Surf forecast
   
Fr 12/09 1:00 33 39 mph 1012mb 32f
12:00 32 37 mph 1012.1mb 32f
11:00 36 41 mph 1011.8mb 32f
10:00 33 41 mph 1012mb 31f
9:00 30 33 mph 1011.8mb 31f
8:00 25 30 mph 1011.5mb 31f
7:00 23 25 mph 1010.8mb 32f
6:00 22 25 mph 1010mb 33f
5:00 25 29 mph 1008.8mb 33f
4:00 28 33 mph 1008.2mb 33f
3:00 24 28 mph 1008.5mb 34f
2:00 22 25 mph 1008.4mb 34f
1:00 24 28 mph 1008mb 34f
12:00 22 26 mph 1008.1mb 35f
Do 12/08 11:00 21 26 mph 1008.4mb 36f
10:00 22 23 mph 1008.2mb 36f
9:00 22 24 mph 1008.2mb 37f
8:00 24 26 mph 1008.1mb 38f
7:00 22 26 mph 1008mb 39f
6:00 29 33 mph 1007.4mb 40f
5:00 22 24 mph 1007.6mb 41f
4:00 18 22 mph 1007.6mb 41f
3:00 15 16 mph 1007.6mb 41f
2:00 14 16 mph 1007.5mb 41f
1:00 14 16 mph 1008.1mb 41f
12:00 13 15 mph 1009.1mb 40f
11:00 16 17 mph 1010.4mb 40f
10:00 16 17 mph 1011.8mb 39f
9:00 15 17 mph 1012.3mb 39f
8:00 14 16 mph 1012.5mb 39f
7:00 14 15 mph 1012.6mb 39f
6:00 14 15 mph 1012.9mb 38f
5:00 16 17 mph 1013.1mb 39f
4:00 15 16 mph 1013.1mb 39f
3:00 15 16 mph 1013.6mb 37f
2:00 15 16 mph 1013.8mb 38f
1:00 16
mph
1014.1mb 37f
12:00 11 13 mph 1013.7mb 37f
Mi 12/07 11:00 8 9 mph 1014.5mb 37f
10:00 11 13 mph 1015mb 36f
9:00 14 16 mph 1015.2mb 38f
8:00 11 13 mph 1015.2mb 40f
7:00 14 16 mph 1015.4mb 39f
6:00 13 14 mph 1015.3mb 39f
5:00 8 10 mph 1015.2mb 39f
4:00 6 7 mph 1014.5mb 38f
3:00 6 7 mph 1014mb 38f
2:00 6
mph
1013.9mb 38f
1:00 7 8 mph 1014mb 37f
12:00 10 11 mph 1014.5mb 36f
11:00 11 13 mph 1015.3mb 36f
10:00 13 15 mph 1015.5mb 35f
9:00 13 14 mph 1015.7mb 34f
8:00 14 16 mph 1015.1mb 34f
7:00 11 14 mph 1014.1mb 40f
6:00 15 17 mph 1013.8mb 40f
5:00 16 17 mph 1013.5mb 40f
4:00 16 18 mph 1013.2mb 40f
3:00 15 20 mph 1013.8mb 40f
2:00 15 17 mph 1014.8mb 40f
1:00 14 16 mph 1014.2mb 40f
12:00 15 16 mph 1014.9mb 40f
Di 12/06 11:00 11 14 mph 1015.9mb 40f
10:00 10 11 mph 1016.7mb 40f
9:00 6 7 mph 1016.9mb 40f
7:00 10 13 mph 1016.7mb 40f
6:00 11 14 mph 1016.6mb 40f
5:00 9 11 mph 1016.9mb 39f
4:00 7 8 mph 1017.5mb 39f
3:00 9 10 mph 1017.3mb 39f
2:00 2 3 mph 1017.9mb 40f
1:00 8 9 mph 1017.9mb 39f
12:00 8 9 mph 1018.7mb 39f
11:00 10 11 mph 1019.3mb 38f
10:00 14 15 mph 1019.4mb 37f
9:00 16 20 mph 1019.3mb 36f
8:00 16 17 mph 1018.9mb 36f
7:00 14 16 mph 1018.7mb 36f
6:00 17 20 mph 1018.3mb 37f
5:00 20 22 mph 1017.9mb 36f
4:00 23 25 mph 1017.3mb 36f
3:00 20 22 mph 1017mb 36f
2:00 21 23 mph 1016.6mb 37f
1:00 17 18 mph 1015.6mb 36f
12:00 16 18 mph 1014.9mb 36f
Mo 12/05 11:00 14 16 mph 1014.6mb 36f
10:00 20 22 mph 1013.8mb 36f
9:00 18 20 mph 1013.4mb 36f
8:00 16 20 mph 1013mb 35f